Time;durP1;ratioP1;P1;durP2;ratioP2;P2;SDS_P1;SDS_P2;PMS_P1;PMS_P2;Temp;Humidity;BMP_temperature;BMP_pressure;BME280_temperature;BME280_humidity;BME280_pressure;Samples;Min_cycle;Max_cycle;Signal;HPM_P1;HPM_P2
2022/05/07 00:01:52;;;;;;;7.60;2.70;;;;;;;11.38;38.80;100355.21;109292;1274;23207;-63
2022/05/07 00:04:20;;;;;;;6.60;3.10;;;;;;;11.37;38.90;100354.97;109195;1274;137631;-64
2022/05/07 00:06:48;;;;;;;5.90;3.00;;;;;;;11.37;38.75;100354.59;109353;1274;22511;-64
2022/05/07 00:09:18;;;;;;;5.70;2.90;;;;;;;11.36;38.93;100353.60;109309;1274;22438;-64
2022/05/07 00:11:47;;;;;;;8.60;2.80;;;;;;;11.36;38.95;100353.30;109185;1274;137567;-64
2022/05/07 00:14:15;;;;;;;7.70;2.90;;;;;;;11.34;39.02;100354.98;109301;1274;22337;-64
2022/05/07 00:19:32;;;;;;;9.30;4.10;;;;;;;11.32;39.09;100354.22;109285;1274;22271;-64
2022/05/07 00:22:00;;;;;;;7.30;3.60;;;;;;;11.29;39.40;100353.02;109120;1276;137986;-63
2022/05/07 00:24:28;;;;;;;6.10;3.00;;;;;;;11.27;39.30;100350.19;109272;1274;23204;-64
2022/05/07 00:26:56;;;;;;;7.40;3.60;;;;;;;11.26;39.52;100345.79;109300;1274;22501;-63
2022/05/07 00:29:24;;;;;;;6.20;3.40;;;;;;;11.24;39.54;100346.98;109162;1274;138365;-64
2022/05/07 00:31:52;;;;;;;6.60;3.00;;;;;;;11.23;39.51;100345.36;109321;1274;22602;-63
2022/05/07 00:34:21;;;;;;;8.10;3.70;;;;;;;11.21;39.76;100347.58;109203;1274;138601;-64
2022/05/07 00:36:49;;;;;;;9.20;3.40;;;;;;;11.20;39.68;100346.55;109405;1274;22516;-63
2022/05/07 00:39:17;;;;;;;5.60;3.20;;;;;;;11.19;39.63;100344.52;109387;1274;23226;-63
2022/05/07 00:41:45;;;;;;;7.40;3.60;;;;;;;11.18;39.76;100346.46;109268;1274;137954;-63
2022/05/07 00:44:16;;;;;;;8.10;3.50;;;;;;;11.16;39.80;100342.17;109320;1274;22445;-64
2022/05/07 00:46:47;;;;;;;6.70;3.50;;;;;;;11.18;39.77;100344.70;109142;1274;137934;-64
2022/05/07 00:49:19;;;;;;;7.70;3.70;;;;;;;11.17;39.84;100345.47;109038;1274;22360;-64
2022/05/07 00:51:51;;;;;;;9.70;3.90;;;;;;;11.16;40.18;100345.98;108768;1277;138396;-63
2022/05/07 00:54:20;;;;;;;9.40;4.30;;;;;;;11.14;40.00;100344.73;109268;1274;22411;-64
2022/05/07 00:56:48;;;;;;;7.30;3.80;;;;;;;11.12;40.01;100344.20;109240;1274;22483;-63
2022/05/07 00:59:17;;;;;;;7.30;4.10;;;;;;;11.09;40.18;100341.00;109190;1274;137924;-63
2022/05/07 01:01:48;;;;;;;6.10;3.50;;;;;;;11.07;40.35;100344.60;108881;1275;22980;-63
2022/05/07 01:04:16;;;;;;;5.80;3.50;;;;;;;11.05;40.69;100346.95;109159;1274;140297;-64
2022/05/07 01:06:44;;;;;;;8.70;3.30;;;;;;;11.03;40.58;100345.32;109264;1275;24114;-63
2022/05/07 01:09:13;;;;;;;6.20;3.10;;;;;;;11.00;40.61;100346.52;109225;1274;23125;-64
2022/05/07 01:11:41;;;;;;;7.40;3.70;;;;;;;10.99;40.59;100346.55;109058;1274;139764;-63
2022/05/07 01:14:10;;;;;;;7.40;3.60;;;;;;;10.97;40.77;100343.85;109317;1274;22433;-63
2022/05/07 01:16:38;;;;;;;7.70;4.20;;;;;;;10.96;40.90;100342.02;109213;1274;139283;-64
2022/05/07 01:19:06;;;;;;;8.90;4.00;;;;;;;10.94;41.07;100337.64;109325;1274;22429;-63
2022/05/07 01:21:35;;;;;;;10.60;4.70;;;;;;;10.91;41.02;100337.40;109123;1274;22434;-64
2022/05/07 01:24:04;;;;;;;8.10;4.80;;;;;;;10.89;41.21;100336.52;108977;1276;137911;-64
2022/05/07 01:26:34;;;;;;;8.80;5.10;;;;;;;10.85;41.28;100336.50;109126;1274;22478;-63
2022/05/07 01:29:07;;;;;;;16.30;5.90;;;;;;;10.83;41.44;100336.16;109272;1274;138262;-64
2022/05/07 01:31:38;;;;;;;18.20;6.60;;;;;;;10.80;41.42;100336.45;109230;1276;22645;-64
2022/05/07 01:34:07;;;;;;;19.60;7.60;;;;;;;10.78;41.53;100335.81;109140;1274;138686;-64
2022/05/07 01:36:37;;;;;;;16.90;9.00;;;;;;;10.76;41.48;100334.39;109271;1274;23724;-64
2022/05/07 01:39:12;;;;;;;18.10;9.50;;;;;;;10.76;41.47;100331.66;109131;1277;22422;-63
2022/05/07 01:41:41;;;;;;;15.00;6.70;;;;;;;10.75;41.56;100328.66;109193;1274;139485;-64
2022/05/07 01:44:09;;;;;;;10.80;5.60;;;;;;;10.75;41.63;100329.63;109275;1274;22420;-63
2022/05/07 01:49:28;;;;;;;8.30;4.30;;;;;;;10.73;41.74;100331.38;109294;1274;22454;-64
2022/05/07 01:51:56;;;;;;;14.10;3.90;;;;;;;10.72;41.94;100325.02;109158;1274;139414;-64
2022/05/07 01:54:28;;;;;;;8.80;4.50;;;;;;;10.70;41.92;100327.41;109372;1274;22443;-63
2022/05/07 01:56:57;;;;;;;8.60;3.80;;;;;;;10.69;41.85;100325.70;109214;1275;22511;-64
2022/05/07 01:59:25;;;;;;;12.80;4.50;;;;;;;10.68;42.00;100327.66;109108;1274;137617;-63
2022/05/07 02:01:56;;;;;;;6.70;3.80;;;;;;;10.67;42.11;100325.98;109250;1274;23190;-63
2022/05/07 02:04:26;;;;;;;9.20;4.00;;;;;;;10.65;42.02;100325.48;109145;1274;137927;-64
2022/05/07 02:06:55;;;;;;;8.40;4.30;;;;;;;10.64;42.24;100323.39;109222;1274;22505;-64
2022/05/07 02:09:24;;;;;;;7.40;3.50;;;;;;;10.63;42.21;100324.96;109266;1274;22432;-63
2022/05/07 02:11:52;;;;;;;7.60;4.10;;;;;;;10.59;42.20;100320.17;109223;1274;139143;-63
2022/05/07 02:14:20;;;;;;;9.20;3.50;;;;;;;10.58;42.29;100324.23;109365;1274;23306;-63
2022/05/07 02:16:49;;;;;;;10.70;4.10;;;;;;;10.57;42.39;100327.83;109182;1274;138070;-63
2022/05/07 02:19:16;;;;;;;13.70;4.30;;;;;;;10.56;42.24;100329.85;109287;1274;23162;-63
2022/05/07 02:21:53;;;;;;;9.90;4.50;;;;;;;10.55;42.45;100327.65;109372;1274;23559;-63
2022/05/07 02:24:22;;;;;;;11.00;6.10;;;;;;;10.53;42.67;100327.19;109160;1276;138382;-63
2022/05/07 02:26:50;;;;;;;13.00;5.30;;;;;;;10.50;42.78;100330.10;106214;1276;24778;-62
2022/05/07 02:29:18;;;;;;;11.90;6.10;;;;;;;10.47;42.88;100326.94;104681;1278;138657;-62
2022/05/07 02:32:06;;;;;;;13.40;5.80;;;;;;;10.44;43.00;100331.05;109233;1274;23307;-62
2022/05/07 02:34:37;;;;;;;12.00;6.30;;;;;;;10.40;43.07;100329.48;109200;1274;139092;-63
2022/05/07 02:37:09;;;;;;;19.80;6.30;;;;;;;10.37;43.14;100330.90;109268;1274;22557;-63
2022/05/07 02:39:40;;;;;;;10.60;5.80;;;;;;;10.35;43.18;100330.38;109279;1274;22493;-63
2022/05/07 02:44:56;;;;;;;10.90;4.50;;;;;;;10.33;43.22;100331.45;109240;1274;22493;-63
2022/05/07 02:47:25;;;;;;;13.40;5.70;;;;;;;10.32;43.33;100331.47;109106;1276;137577;-63
2022/05/07 02:49:53;;;;;;;8.50;4.60;;;;;;;10.30;43.48;100328.75;109264;1274;22415;-63
2022/05/07 02:52:21;;;;;;;8.90;5.30;;;;;;;10.27;43.57;100331.64;109170;1274;137673;-63
2022/05/07 02:54:49;;;;;;;9.90;5.30;;;;;;;10.25;43.62;100334.80;109170;1276;22472;-63
2022/05/07 02:57:18;;;;;;;10.20;5.60;;;;;;;10.24;43.71;100336.63;109202;1276;22444;-63
2022/05/07 02:59:47;;;;;;;8.40;5.80;;;;;;;10.21;43.87;100336.74;109130;1276;139497;-63
2022/05/07 03:02:15;;;;;;;13.40;5.20;;;;;;;10.20;44.11;100341.49;109237;1276;22259;-63
2022/05/07 03:04:43;;;;;;;10.00;5.60;;;;;;;10.18;44.17;100340.33;109201;1274;137635;-63
2022/05/07 03:07:11;;;;;;;12.30;5.70;;;;;;;10.17;44.18;100344.48;109390;1274;22397;-63
2022/05/07 03:09:40;;;;;;;11.50;5.50;;;;;;;10.15;44.26;100342.88;109322;1274;22810;-63
2022/05/07 03:12:09;;;;;;;9.00;5.50;;;;;;;10.14;44.45;100341.75;109212;1274;138994;-63
2022/05/07 03:14:38;;;;;;;12.40;6.00;;;;;;;10.13;44.44;100343.29;109428;1274;22453;-63
2022/05/07 03:17:08;;;;;;;8.60;4.90;;;;;;;10.10;44.56;100341.58;109195;1274;137968;-63
2022/05/07 03:19:36;;;;;;;8.90;4.70;;;;;;;10.11;44.69;100347.29;109258;1274;22424;-63
2022/05/07 03:22:04;;;;;;;16.20;5.20;;;;;;;10.09;44.64;100339.88;109276;1274;137955;-63
2022/05/07 03:24:37;;;;;;;9.20;4.80;;;;;;;10.10;44.78;100341.60;109189;1276;22415;-63
2022/05/07 03:27:06;;;;;;;10.50;5.10;;;;;;;10.09;45.00;100348.39;109289;1274;23555;-63
2022/05/07 03:29:34;;;;;;;13.00;5.10;;;;;;;10.07;45.12;100345.83;109060;1275;138130;-63
2022/05/07 03:32:09;;;;;;;10.00;4.40;;;;;;;10.06;45.43;100345.48;109222;1274;22629;-63
2022/05/07 03:34:43;;;;;;;8.70;3.80;;;;;;;10.04;45.02;100348.26;109012;1277;138694;-63
2022/05/07 03:37:12;;;;;;;9.40;4.60;;;;;;;10.04;45.08;100347.77;109222;1274;23200;-63
2022/05/07 03:39:42;;;;;;;11.90;4.40;;;;;;;10.04;44.86;100347.17;109175;1275;22432;-63
2022/05/07 03:42:10;;;;;;;8.80;4.50;;;;;;;10.06;44.99;100348.20;109068;1275;138939;-63
2022/05/07 03:44:38;;;;;;;13.50;4.40;;;;;;;10.08;45.08;100350.17;109187;1274;22662;-63
2022/05/07 03:47:06;;;;;;;11.00;4.00;;;;;;;10.10;45.08;100349.83;109057;1276;137894;-63
2022/05/07 03:49:35;;;;;;;7.20;4.50;;;;;;;10.13;45.31;100350.70;109138;1276;23522;-63
2022/05/07 03:55:08;;;;;;;9.10;4.40;;;;;;;10.16;45.41;100351.91;108582;1282;22681;-63
2022/05/07 03:57:36;;;;;;;7.60;4.60;;;;;;;10.14;45.46;100349.89;108535;1282;23210;-63
2022/05/07 04:00:05;;;;;;;10.20;4.10;;;;;;;10.19;45.11;100351.48;108479;1282;138660;-63
2022/05/07 04:02:41;;;;;;;11.00;4.60;;;;;;;10.19;44.98;100351.48;108678;1281;22502;-63
2022/05/07 04:05:20;;;;;;;6.50;4.10;;;;;;;10.26;45.24;100353.98;108494;1282;138276;-63
2022/05/07 04:07:49;;;;;;;11.70;3.70;;;;;;;10.26;45.56;100351.43;108557;1281;22575;-63
2022/05/07 04:10:18;;;;;;;6.30;3.90;;;;;;;10.35;45.34;100355.23;108420;1282;137657;-63
2022/05/07 04:12:47;;;;;;;8.80;4.10;;;;;;;10.40;45.65;100357.60;108647;1281;23596;-63
2022/05/07 04:15:19;;;;;;;8.10;4.40;;;;;;;10.46;45.50;100358.39;108512;1281;22476;-63
2022/05/07 04:17:48;;;;;;;17.10;4.30;;;;;;;10.53;45.57;100360.52;108384;1282;137805;-63
2022/05/07 04:20:16;;;;;;;9.00;3.70;;;;;;;10.59;45.36;100361.59;108510;1282;22521;-63
2022/05/07 04:22:49;;;;;;;7.80;4.10;;;;;;;10.68;45.34;100360.96;108404;1281;138625;-63
2022/05/07 04:25:17;;;;;;;11.00;4.30;;;;;;;10.76;45.35;100361.39;108449;1282;22466;-63
2022/05/07 04:27:45;;;;;;;9.90;4.20;;;;;;;10.86;45.13;100364.05;108559;1282;23591;-63
2022/05/07 04:30:14;;;;;;;8.50;4.00;;;;;;;10.98;44.82;100359.24;108392;1277;138499;-63
2022/05/07 04:32:43;;;;;;;10.50;4.30;;;;;;;11.11;44.96;100358.91;109180;1276;22723;-63
2022/05/07 04:35:11;;;;;;;7.70;4.30;;;;;;;11.21;44.55;100360.67;109152;1274;138956;-63
2022/05/07 04:37:39;;;;;;;8.70;4.20;;;;;;;11.32;44.85;100359.24;109176;1274;23167;-63
2022/05/07 04:40:11;;;;;;;9.00;4.40;;;;;;;11.42;44.78;100359.05;108935;1274;137577;-63
2022/05/07 04:42:41;;;;;;;9.90;4.00;;;;;;;11.52;44.24;100356.91;109260;1274;22437;-63
2022/05/07 04:45:09;;;;;;;9.00;4.40;;;;;;;11.63;44.18;100352.41;109248;1274;22480;-63
2022/05/07 04:47:49;;;;;;;9.30;4.30;;;;;;;11.74;44.20;100349.17;109078;1275;138108;-63
2022/05/07 04:50:31;;;;;;;12.70;4.80;;;;;;;11.87;43.75;100354.58;109210;1274;22444;-63
2022/05/07 04:53:29;;;;;;;9.00;4.30;;;;;;;12.08;43.66;100353.52;109056;1274;137762;-63
2022/05/07 04:56:01;;;;;;;27.90;4.90;;;;;;;12.30;43.36;100350.83;109158;1275;23085;-63
2022/05/07 04:58:30;;;;;;;8.90;4.00;;;;;;;12.57;43.33;100351.89;109097;1276;139126;-63
2022/05/07 05:01:00;;;;;;;13.50;4.80;;;;;;;12.85;42.94;100349.28;109223;1274;23046;-63
2022/05/07 05:03:29;;;;;;;12.50;4.40;;;;;;;13.10;42.23;100347.72;109127;1274;22490;-63
2022/05/07 05:06:13;;;;;;;9.80;4.30;;;;;;;13.35;42.26;100347.60;109036;1274;138017;-63
2022/05/07 05:09:04;;;;;;;11.10;5.10;;;;;;;13.54;41.30;100347.65;109287;1274;22387;-63
2022/05/07 05:11:34;;;;;;;39.80;6.40;;;;;;;13.65;41.15;100351.11;109002;1274;138557;-63
2022/05/07 05:15:01;;;;;;;19.80;5.20;;;;;;;13.75;40.77;100348.26;109053;1277;22393;-63
2022/05/07 05:16:52;;;;;;;11.00;5.70;;;;;;;13.90;41.29;100350.80;108820;1276;265206;-63
2022/05/07 05:21:22;;;;;;;18.30;6.60;;;;;;;14.05;40.92;100347.56;101530;1309;560632;-65
2022/05/07 05:23:55;;;;;;;12.70;5.50;;;;;;;14.15;40.79;100350.54;108141;1286;138490;-65
2022/05/07 05:26:27;;;;;;;10.30;4.80;;;;;;;14.18;40.55;100347.99;108216;1286;22443;-65
2022/05/07 05:28:57;;;;;;;10.40;5.70;;;;;;;14.23;40.79;100353.03;107488;1287;137515;-65
2022/05/07 05:31:23;;;;;;;10.80;4.80;;;;;;;14.27;40.81;100350.92;108207;1287;22333;-65
2022/05/07 05:33:57;;;;;;;12.10;5.90;;;;;;;14.30;40.50;100352.69;107932;1286;218606;-65
2022/05/07 05:36:43;;;;;;;14.10;5.40;;;;;;;14.33;40.51;100351.08;108120;1286;154331;-65
2022/05/07 05:39:10;;;;;;;18.70;5.60;;;;;;;14.31;40.62;100353.14;109014;1279;22502;-65
2022/05/07 05:41:45;;;;;;;12.00;4.90;;;;;;;14.30;40.64;100355.80;108942;1277;137436;-65
2022/05/07 05:44:12;;;;;;;20.70;5.30;;;;;;;14.27;40.78;100356.52;109114;1277;22422;-65
2022/05/07 05:46:44;;;;;;;;;;;;;;;14.24;41.16;100359.13;109130;1277;137573;-65
2022/05/07 05:49:11;;;;;;;9.80;4.80;;;;;;;14.22;41.42;100359.88;109252;1277;22594;-65
2022/05/07 05:51:39;;;;;;;11.80;5.00;;;;;;;14.25;41.49;100360.55;109095;1277;22551;-65
2022/05/07 05:54:12;;;;;;;9.40;4.70;;;;;;;14.32;41.32;100361.42;108820;1277;137820;-65
2022/05/07 05:56:39;;;;;;;12.10;5.00;;;;;;;14.40;41.44;100367.17;109266;1277;22249;-65
2022/05/07 05:59:06;;;;;;;13.20;6.40;;;;;;;14.47;40.94;100370.95;108961;1277;138914;-65
2022/05/07 06:01:54;;;;;;;10.30;4.80;;;;;;;14.56;41.03;100370.09;109118;1277;23247;-65
2022/05/07 06:04:28;;;;;;;11.90;5.40;;;;;;;14.65;41.27;100371.70;108918;1277;139401;-65
2022/05/07 06:06:58;;;;;;;11.10;5.80;;;;;;;14.71;40.66;100369.91;108997;1277;22432;-65
2022/05/07 06:09:28;;;;;;;10.00;4.90;;;;;;;14.77;40.81;100369.41;108979;1277;22527;-65
2022/05/07 06:11:57;;;;;;;12.20;5.40;;;;;;;14.83;40.59;100372.04;109095;1277;139523;-64
2022/05/07 06:14:25;;;;;;;15.10;5.50;;;;;;;14.88;40.45;100371.05;109100;1277;23271;-65
2022/05/07 06:16:56;;;;;;;12.90;6.60;;;;;;;14.93;40.91;100369.77;108823;1280;138112;-65
2022/05/07 06:19:30;;;;;;;13.30;6.30;;;;;;;14.93;41.09;100369.77;109002;1277;22392;-65
2022/05/07 06:21:59;;;;;;;19.30;6.20;;;;;;;14.95;40.76;100370.79;108941;1277;23160;-65
2022/05/07 06:27:33;;;;;;;9.90;6.10;;;;;;;15.08;40.83;100372.55;109075;1277;22532;-65
2022/05/07 06:30:18;;;;;;;13.90;6.10;;;;;;;15.18;40.62;100368.20;108914;1280;138804;-65
2022/05/07 06:32:49;;;;;;;13.00;6.60;;;;;;;15.28;40.79;100368.02;108997;1277;22469;-65
2022/05/07 06:35:17;;;;;;;14.80;6.10;;;;;;;15.36;40.86;100366.96;108940;1277;138927;-65
2022/05/07 06:38:04;;;;;;;7.50;5.00;;;;;;;15.45;40.60;100367.15;108897;1278;22452;-65
2022/05/07 06:40:31;;;;;;;15.60;6.00;;;;;;;15.52;40.23;100363.78;108841;1277;137234;-65
2022/05/07 06:42:58;;;;;;;12.40;5.70;;;;;;;15.60;40.37;100362.17;108980;1277;22438;-65
2022/05/07 06:45:32;;;;;;;16.10;7.50;;;;;;;15.67;40.59;100367.86;109008;1278;22426;-65
2022/05/07 06:48:00;;;;;;;37.60;8.80;;;;;;;15.73;40.71;100366.83;108922;1277;137509;-65
2022/05/07 06:50:27;;;;;;;17.00;6.40;;;;;;;15.79;40.63;100362.45;108962;1278;22518;-65
2022/05/07 06:52:54;;;;;;;20.30;6.40;;;;;;;15.88;40.38;100362.13;108773;1280;137548;-65
2022/05/07 06:55:20;;;;;;;13.00;6.20;;;;;;;15.97;40.01;100359.41;108872;1281;22458;-65
2022/05/07 06:57:48;;;;;;;12.90;5.90;;;;;;;16.05;39.77;100358.25;108947;1281;22711;-65
2022/05/07 07:00:34;;;;;;;9.40;5.40;;;;;;;16.13;39.83;100359.64;108824;1280;137884;-65
2022/05/07 07:03:01;;;;;;;16.80;6.20;;;;;;;16.20;38.96;100356.16;108930;1281;23388;-65
2022/05/07 07:05:28;;;;;;;12.70;5.40;;;;;;;16.27;38.85;100355.19;108883;1277;139062;-66
2022/05/07 07:07:55;;;;;;;10.30;6.20;;;;;;;16.32;38.49;100357.32;109200;1277;22449;-65
2022/05/07 07:10:21;;;;;;;15.50;5.40;;;;;;;16.42;37.98;100358.70;109039;1277;137304;-65
2022/05/07 07:12:51;;;;;;;13.50;6.00;;;;;;;16.51;38.20;100354.45;109120;1277;23145;-65
2022/05/07 07:15:18;;;;;;;13.20;6.40;;;;;;;16.59;38.70;100359.73;108990;1277;22574;-65
2022/05/07 07:17:47;;;;;;;9.30;5.60;;;;;;;16.65;38.46;100360.13;108691;1277;138662;-65
2022/05/07 07:20:14;;;;;;;11.90;6.10;;;;;;;16.73;38.64;100357.59;108753;1281;22417;-65
2022/05/07 07:22:42;;;;;;;12.80;6.00;;;;;;;16.80;37.80;100361.04;108896;1279;138636;-63
2022/05/07 07:25:10;;;;;;;14.10;6.00;;;;;;;16.88;38.01;100361.91;108877;1279;22524;-64
2022/05/07 07:27:37;;;;;;;13.10;6.30;;;;;;;16.91;38.01;100359.13;108606;1281;22645;-64
2022/05/07 07:30:04;;;;;;;10.30;5.80;;;;;;;16.94;37.40;100358.09;108800;1280;138427;-63
2022/05/07 07:32:45;;;;;;;9.40;5.50;;;;;;;16.99;37.70;100360.13;108884;1281;22455;-64
2022/05/07 07:35:12;;;;;;;12.40;6.40;;;;;;;17.03;38.13;100360.98;108832;1281;138995;-65
2022/05/07 07:37:45;;;;;;;14.30;6.00;;;;;;;17.08;37.94;100359.70;108925;1280;22466;-64
2022/05/07 07:40:15;;;;;;;14.10;5.80;;;;;;;17.15;38.63;100358.80;108585;1281;22482;-64
2022/05/07 07:42:42;;;;;;;14.00;6.10;;;;;;;17.20;38.44;100362.45;108786;1281;137087;-64
2022/05/07 07:47:56;;;;;;;13.10;5.20;;;;;;;17.35;38.70;100362.52;108887;1279;137390;-64
2022/05/07 07:50:30;;;;;;;10.00;6.20;;;;;;;17.42;38.39;100359.85;109078;1279;22450;-64
2022/05/07 07:53:01;;;;;;;11.00;6.80;;;;;;;17.52;36.96;100352.78;108805;1280;137602;-63
2022/05/07 07:55:29;;;;;;;20.20;7.10;;;;;;;17.61;36.96;100355.60;108170;1280;24543;-64
2022/05/07 07:57:57;;;;;;;10.90;5.50;;;;;;;17.70;36.30;100353.49;104588;1280;24148;-64
2022/05/07 08:00:24;;;;;;;14.00;5.60;;;;;;;17.77;35.87;100352.73;108814;1278;139089;-64
2022/05/07 08:02:52;;;;;;;9.80;5.50;;;;;;;17.85;36.13;100351.91;108941;1278;22603;-64
2022/05/07 08:05:25;;;;;;;15.60;5.90;;;;;;;17.91;36.21;100352.34;108681;1281;139031;-65
2022/05/07 08:13:45;;;;;;;12.20;5.30;;;;;;;18.13;36.15;100348.56;108870;1279;22239;-65
2022/05/07 08:16:12;;;;;;;16.80;6.10;;;;;;;18.18;36.04;100345.44;108958;1279;22439;-66
2022/05/07 08:18:39;;;;;;;12.00;6.50;;;;;;;18.21;35.14;100344.52;108884;1279;137480;-65
2022/05/07 08:21:06;;;;;;;12.10;5.90;;;;;;;18.23;34.95;100343.58;108973;1279;23394;-65
2022/05/07 08:23:33;;;;;;;12.30;5.70;;;;;;;18.23;34.58;100339.60;108802;1280;138328;-66
2022/05/07 08:26:02;;;;;;;12.30;5.10;;;;;;;18.24;34.70;100340.59;108678;1281;22454;-64
2022/05/07 08:28:33;;;;;;;18.10;6.40;;;;;;;18.25;34.47;100338.64;108903;1279;138342;-63
2022/05/07 08:31:00;;;;;;;19.40;5.80;;;;;;;18.27;35.04;100342.33;109007;1279;22457;-64
2022/05/07 08:33:28;;;;;;;12.50;5.60;;;;;;;18.28;34.64;100339.45;108959;1278;22428;-64
2022/05/07 08:35:54;;;;;;;13.20;5.90;;;;;;;18.24;34.59;100338.71;108856;1278;138088;-64
2022/05/07 08:38:22;;;;;;;14.90;4.80;;;;;;;18.22;34.41;100334.47;109011;1279;22474;-64
2022/05/07 08:40:50;;;;;;;11.10;5.30;;;;;;;18.23;34.34;100335.80;108835;1279;137693;-64
2022/05/07 08:43:17;;;;;;;15.80;4.90;;;;;;;18.26;34.61;100335.22;108777;1279;22450;-65
2022/05/07 08:45:44;;;;;;;10.70;5.20;;;;;;;18.31;34.20;100331.58;108874;1279;22461;-64
2022/05/07 08:48:11;;;;;;;11.80;4.70;;;;;;;18.36;33.82;100332.80;108887;1279;138617;-65
2022/05/07 08:50:39;;;;;;;8.00;4.30;;;;;;;18.42;34.00;100328.62;109034;1278;22448;-64
2022/05/07 08:53:07;;;;;;;10.90;4.20;;;;;;;18.49;34.17;100322.30;108796;1279;137989;-64
2022/05/07 08:55:34;;;;;;;8.50;4.50;;;;;;;18.56;34.62;100318.34;109005;1279;22458;-65
2022/05/07 08:58:01;;;;;;;17.80;7.10;;;;;;;18.64;33.81;100316.79;109006;1278;22471;-64
2022/05/07 09:00:29;;;;;;;12.70;5.90;;;;;;;18.68;33.87;100315.30;108900;1279;137443;-65
2022/05/07 09:02:57;;;;;;;12.80;4.10;;;;;;;18.73;33.37;100320.80;108963;1279;23485;-65
2022/05/07 09:05:35;;;;;;;8.30;5.20;;;;;;;18.77;32.80;100319.52;108858;1279;137952;-65
2022/05/07 09:08:03;;;;;;;13.60;5.50;;;;;;;18.80;31.81;100313.67;108963;1278;23366;-65
2022/05/07 09:10:35;;;;;;;9.20;5.10;;;;;;;18.82;32.60;100316.92;108861;1278;139490;-64
2022/05/07 09:13:16;;;;;;;7.80;4.20;;;;;;;18.86;32.90;100319.59;108961;1277;22426;-65
2022/05/07 09:15:49;;;;;;;9.00;4.70;;;;;;;18.89;33.01;100321.02;108957;1279;22461;-66
2022/05/07 09:18:18;;;;;;;9.30;4.40;;;;;;;18.94;32.67;100311.76;108912;1279;137354;-64
2022/05/07 09:20:56;;;;;;;9.50;4.70;;;;;;;18.98;32.62;100314.81;108912;1279;22441;-64
2022/05/07 09:23:23;;;;;;;11.40;4.80;;;;;;;19.01;32.40;100312.52;108886;1278;138014;-64
2022/05/07 09:25:50;;;;;;;22.60;5.10;;;;;;;19.05;31.29;100309.26;109014;1279;23194;-64
2022/05/07 09:28:29;;;;;;;8.10;4.90;;;;;;;19.07;30.62;100306.23;109350;1274;22390;-64
2022/05/07 09:30:56;;;;;;;24.40;5.00;;;;;;;19.06;30.66;100302.65;109233;1274;137301;-64
2022/05/07 09:33:41;;;;;;;6.20;4.30;;;;;;;19.07;30.47;100300.93;109372;1274;22447;-65
2022/05/07 09:36:11;;;;;;;9.70;4.50;;;;;;;19.04;30.01;100305.73;109207;1274;137953;-65
2022/05/07 09:38:38;;;;;;;11.20;4.60;;;;;;;19.01;30.55;100295.71;109378;1274;22513;-65
2022/05/07 09:41:05;;;;;;;10.00;4.60;;;;;;;19.04;31.59;100304.84;109255;1274;138760;-65
2022/05/07 09:43:32;;;;;;;16.80;4.80;;;;;;;19.09;31.44;100296.48;109396;1274;22488;-65
2022/05/07 09:46:00;;;;;;;9.30;4.60;;;;;;;19.12;31.08;100292.38;109316;1274;22412;-65
2022/05/07 09:48:26;;;;;;;7.60;4.30;;;;;;;19.14;30.62;100286.66;109269;1274;138486;-66
2022/05/07 09:50:53;;;;;;;10.80;4.30;;;;;;;19.17;31.76;100287.46;109118;1276;22572;-65
2022/05/07 09:58:52;;;;;;;10.30;4.20;;;;;;;19.30;31.11;100289.14;109164;1274;138976;-65
2022/05/07 10:01:28;;;;;;;9.20;4.60;;;;;;;19.34;30.12;100285.48;109383;1274;22434;-65
2022/05/07 10:04:20;;;;;;;12.80;4.30;;;;;;;19.36;29.26;100277.61;109312;1274;22529;-65
2022/05/07 10:06:53;;;;;;;30.70;6.20;;;;;;;19.39;29.05;100277.98;109077;1276;137683;-65
2022/05/07 10:09:58;;;;;;;10.30;4.00;;;;;;;19.37;29.04;100281.75;109339;1274;22454;-65
2022/05/07 10:12:26;;;;;;;6.60;3.80;;;;;;;19.38;30.06;100278.03;109201;1274;138294;-65
2022/05/07 10:14:52;;;;;;;9.60;4.70;;;;;;;19.40;29.91;100267.23;109256;1274;22458;-65
2022/05/07 10:17:21;;;;;;;10.10;4.20;;;;;;;19.42;29.92;100265.71;109170;1275;137580;-65
2022/05/07 10:19:51;;;;;;;9.30;4.80;;;;;;;19.45;30.13;100266.06;109413;1274;22401;-65
2022/05/07 10:22:24;;;;;;;24.60;5.70;;;;;;;19.52;30.40;100264.09;109269;1276;22440;-65
2022/05/07 10:25:06;;;;;;;9.00;4.90;;;;;;;19.54;29.76;100265.68;109262;1274;137507;-65
2022/05/07 10:27:35;;;;;;;9.20;4.60;;;;;;;19.52;30.03;100265.10;109446;1274;22441;-63
2022/05/07 10:30:06;;;;;;;13.10;5.80;;;;;;;19.51;30.02;100253.60;109362;1274;138607;-63
2022/05/07 10:32:55;;;;;;;11.30;4.90;;;;;;;19.56;30.26;100253.59;109465;1273;23663;-64
2022/05/07 10:35:47;;;;;;;10.60;4.70;;;;;;;19.63;30.36;100256.59;109367;1274;138633;-66
2022/05/07 10:38:35;;;;;;;10.90;4.10;;;;;;;19.74;29.69;100259.29;109481;1274;22380;-65
2022/05/07 10:41:16;;;;;;;15.90;8.80;;;;;;;19.79;29.29;100256.44;109350;1274;138701;-65
2022/05/07 10:43:47;;;;;;;7.40;5.10;;;;;;;19.80;29.04;100250.34;109474;1274;22500;-65
2022/05/07 10:46:23;;;;;;;6.50;4.30;;;;;;;19.78;29.64;100248.70;109452;1274;22456;-65
2022/05/07 10:48:57;;;;;;;8.00;4.50;;;;;;;19.77;30.62;100249.77;109288;1273;137411;-65
2022/05/07 10:51:30;;;;;;;9.60;4.20;;;;;;;19.79;29.76;100247.75;109374;1274;22683;-65
2022/05/07 10:54:00;;;;;;;10.10;4.40;;;;;;;19.80;29.62;100243.64;109316;1274;138090;-66
2022/05/07 10:56:34;;;;;;;8.20;4.50;;;;;;;19.81;29.31;100243.74;109416;1274;22474;-65
2022/05/07 10:59:01;;;;;;;11.40;4.60;;;;;;;19.82;30.02;100247.21;109274;1274;138051;-65
2022/05/07 11:01:29;;;;;;;7.20;4.30;;;;;;;19.83;29.80;100246.58;109367;1274;23433;-65
2022/05/07 11:04:06;;;;;;;8.40;4.80;;;;;;;19.83;29.73;100246.15;109244;1276;23071;-65
2022/05/07 11:06:44;;;;;;;8.80;4.40;;;;;;;19.83;29.89;100243.70;106441;1276;138175;-66
2022/05/07 11:09:20;;;;;;;5.80;4.10;;;;;;;19.83;29.62;100236.46;104926;1276;24010;-63
2022/05/07 11:11:49;;;;;;;7.20;4.40;;;;;;;19.84;30.27;100235.35;109101;1275;137496;-64
2022/05/07 11:14:23;;;;;;;11.00;4.50;;;;;;;19.85;30.31;100234.77;109127;1275;23079;-64
2022/05/07 11:16:53;;;;;;;7.50;4.60;;;;;;;19.86;30.37;100232.38;109201;1274;138786;-64
2022/05/07 11:19:33;;;;;;;8.40;4.30;;;;;;;19.84;29.73;100226.78;109477;1274;22541;-64
2022/05/07 11:22:01;;;;;;;10.60;4.90;;;;;;;19.80;29.80;100224.40;109350;1274;22465;-64
2022/05/07 11:24:28;;;;;;;6.80;4.70;;;;;;;19.78;29.74;100225.52;109329;1273;138386;-64
2022/05/07 11:27:02;;;;;;;8.20;4.10;;;;;;;19.76;30.28;100222.86;109459;1274;23243;-64
2022/05/07 11:29:32;;;;;;;8.30;5.60;;;;;;;19.75;30.16;100222.44;109395;1273;138416;-64
2022/05/07 11:32:07;;;;;;;13.80;5.30;;;;;;;19.75;29.87;100218.40;109476;1274;22418;-64
2022/05/07 11:34:35;;;;;;;11.20;5.50;;;;;;;19.72;29.70;100219.23;109457;1274;22447;-64
2022/05/07 11:37:22;;;;;;;8.60;4.10;;;;;;;19.69;29.65;100217.78;109339;1273;138080;-64
2022/05/07 11:39:59;;;;;;;11.20;4.90;;;;;;;19.67;29.89;100211.17;109431;1273;22449;-64
2022/05/07 11:42:46;;;;;;;10.60;4.80;;;;;;;19.66;30.24;100206.83;109104;1277;138476;-64
2022/05/07 11:45:25;;;;;;;9.20;5.10;;;;;;;19.64;30.30;100204.41;109502;1273;23426;-64
2022/05/07 11:48:13;;;;;;;8.20;4.40;;;;;;;19.61;30.43;100199.73;109349;1274;137953;-64
2022/05/07 11:50:53;;;;;;;10.10;4.60;;;;;;;19.58;30.24;100196.40;109495;1273;22531;-64
2022/05/07 11:53:30;;;;;;;13.10;4.70;;;;;;;19.55;30.43;100190.69;109312;1274;138916;-65
2022/05/07 11:56:09;;;;;;;6.90;4.20;;;;;;;19.53;29.87;100189.02;109339;1274;22486;-64
2022/05/07 11:58:49;;;;;;;13.80;5.50;;;;;;;19.48;30.40;100182.72;109460;1274;22608;-64